EZY42UA EGKK-LEAM
Flight info
| Callsign | EZY42UA |
|---|---|
| Flight time | 2h 15m |
| Altitude | 37000 |
| Route | BOGNA L612 BENBO Y47 DRAKE L151 SITET UN859 SOPIL DCT BALAN DCT LMG DCT PIMQO DCT AGN DCT ANETO N860 DOSEK |
| Aircraft | A319/M-SDE3FGHIRWY/LB1 |
Departure
| Time | 2026-04-16 10:55 |
|---|---|
| Airport | London Gatwick Airport (EGKK) |
Arrival
| Time | 2026-04-16 13:10 |
|---|---|
| Airport | Almería Airport (LEAM) |
| Time | Latitude | Longitude | Altitude | Speed | Heading |
|---|---|---|---|---|---|
| 2026-04-16 10:07 | 51.15576 | -0.17763 | 178 ft | 0 kts | 347° |
| 2026-04-16 10:22 | 51.15576 | -0.17762 | 178 ft | 0 kts | 347° |
| 2026-04-16 10:44 | 51.15559 | -0.17756 | 209 ft | 3 kts | 347° |
| 2026-04-16 10:44 | 51.15537 | -0.17748 | 215 ft | 3 kts | 353° |
| 2026-04-16 10:44 | 51.15516 | -0.17750 | 211 ft | 3 kts | 33° |
| 2026-04-16 10:45 | 51.15503 | -0.17775 | 216 ft | 2 kts | 77° |
| 2026-04-16 10:45 | 51.15500 | -0.17799 | 205 ft | 0 kts | 78° |
| 2026-04-16 10:47 | 51.15500 | -0.17798 | 205 ft | 0 kts | 78° |
| 2026-04-16 10:47 | 51.15503 | -0.17777 | 216 ft | 5 kts | 78° |
| 2026-04-16 10:48 | 51.15514 | -0.17699 | 207 ft | 9 kts | 77° |
| 2026-04-16 10:48 | 51.15528 | -0.17598 | 205 ft | 9 kts | 77° |
| 2026-04-16 10:48 | 51.15542 | -0.17494 | 205 ft | 10 kts | 78° |
| 2026-04-16 10:48 | 51.15503 | -0.17427 | 214 ft | 9 kts | 168° |
| 2026-04-16 10:49 | 51.15438 | -0.17404 | 205 ft | 10 kts | 168° |
| 2026-04-16 10:49 | 51.15368 | -0.17380 | 214 ft | 11 kts | 168° |
| 2026-04-16 10:49 | 51.15292 | -0.17354 | 210 ft | 12 kts | 168° |
| 2026-04-16 10:49 | 51.15221 | -0.17291 | 205 ft | 12 kts | 144° |
| 2026-04-16 10:50 | 51.15181 | -0.17193 | 206 ft | 11 kts | 75° |
| 2026-04-16 10:50 | 51.15199 | -0.17069 | 205 ft | 12 kts | 77° |
| 2026-04-16 10:50 | 51.15217 | -0.16943 | 214 ft | 11 kts | 77° |
| 2026-04-16 10:50 | 51.15225 | -0.16856 | 206 ft | 3 kts | 97° |
| 2026-04-16 10:51 | 51.15222 | -0.16846 | 206 ft | 0 kts | 115° |
| 2026-04-16 10:52 | 51.15218 | -0.16834 | 206 ft | 3 kts | 115° |
| 2026-04-16 10:53 | 51.15192 | -0.16800 | 206 ft | 7 kts | 156° |
| 2026-04-16 10:53 | 51.15141 | -0.16781 | 214 ft | 8 kts | 167° |
| 2026-04-16 10:53 | 51.15123 | -0.16796 | 208 ft | 1 kts | 253° |
| 2026-04-16 10:53 | 51.15122 | -0.16804 | 208 ft | 0 kts | 257° |
| 2026-04-16 10:54 | 51.15120 | -0.16823 | 208 ft | 8 kts | 258° |
| 2026-04-16 10:54 | 51.15052 | -0.17305 | 211 ft | 82 kts | 257° |
| 2026-04-16 10:54 | 51.14884 | -0.18532 | 216 ft | 143 kts | 257° |
| 2026-04-16 10:54 | 51.14672 | -0.20128 | 751 ft | 150 kts | 254° |
| 2026-04-16 10:55 | 51.14452 | -0.21776 | 1525 ft | 155 kts | 252° |
| 2026-04-16 10:55 | 51.14198 | -0.23561 | 1971 ft | 176 kts | 252° |
| 2026-04-16 10:55 | 51.13905 | -0.25599 | 2392 ft | 199 kts | 252° |
| 2026-04-16 10:55 | 51.13593 | -0.27791 | 3227 ft | 205 kts | 252° |
| 2026-04-16 10:56 | 51.13277 | -0.30048 | 4095 ft | 211 kts | 253° |
| 2026-04-16 10:56 | 51.12958 | -0.32348 | 4998 ft | 215 kts | 252° |
| 2026-04-16 10:56 | 51.12467 | -0.34670 | 5546 ft | 231 kts | 234° |
| 2026-04-16 10:56 | 51.11243 | -0.36383 | 6214 ft | 243 kts | 204° |
| 2026-04-16 10:57 | 51.09563 | -0.36775 | 7130 ft | 252 kts | 174° |
| 2026-04-16 10:57 | 51.07861 | -0.35943 | 8038 ft | 259 kts | 165° |
| 2026-04-16 10:57 | 51.06122 | -0.35176 | 8959 ft | 261 kts | 170° |
| 2026-04-16 10:57 | 51.04338 | -0.34553 | 9877 ft | 265 kts | 172° |
| 2026-04-16 10:58 | 51.02499 | -0.33952 | 10570 ft | 278 kts | 172° |
| 2026-04-16 10:58 | 51.00520 | -0.33297 | 10904 ft | 301 kts | 172° |
| 2026-04-16 10:58 | 50.98441 | -0.32586 | 11562 ft | 310 kts | 171° |
| 2026-04-16 10:58 | 50.96325 | -0.31832 | 12382 ft | 314 kts | 171° |
| 2026-04-16 10:59 | 50.94183 | -0.31039 | 13223 ft | 318 kts | 170° |
| 2026-04-16 10:59 | 50.92022 | -0.30223 | 14041 ft | 321 kts | 170° |
| 2026-04-16 10:59 | 50.89834 | -0.29395 | 14765 ft | 325 kts | 170° |
| 2026-04-16 10:59 | 50.87626 | -0.28564 | 15493 ft | 328 kts | 171° |
| 2026-04-16 11:00 | 50.85396 | -0.27726 | 16213 ft | 331 kts | 171° |
| 2026-04-16 11:00 | 50.83138 | -0.26882 | 16927 ft | 334 kts | 171° |
| 2026-04-16 11:00 | 50.80864 | -0.26035 | 17629 ft | 338 kts | 171° |
| 2026-04-16 11:00 | 50.78567 | -0.25177 | 18330 ft | 341 kts | 172° |
| 2026-04-16 11:01 | 50.76247 | -0.24312 | 18960 ft | 344 kts | 172° |
| 2026-04-16 11:01 | 50.73906 | -0.23443 | 19576 ft | 347 kts | 172° |
| 2026-04-16 11:01 | 50.71549 | -0.22571 | 20204 ft | 349 kts | 171° |
| 2026-04-16 11:01 | 50.69171 | -0.21690 | 20808 ft | 353 kts | 171° |
| 2026-04-16 11:02 | 50.66779 | -0.20802 | 21422 ft | 355 kts | 171° |
| 2026-04-16 11:02 | 50.64365 | -0.19906 | 22037 ft | 357 kts | 171° |
| 2026-04-16 11:02 | 50.61934 | -0.19006 | 22635 ft | 360 kts | 171° |
| 2026-04-16 11:02 | 50.59483 | -0.18100 | 23246 ft | 364 kts | 171° |
| 2026-04-16 11:03 | 50.57010 | -0.17187 | 23820 ft | 367 kts | 171° |
| 2026-04-16 11:03 | 50.54514 | -0.16264 | 24295 ft | 370 kts | 171° |
| 2026-04-16 11:03 | 50.49473 | -0.14409 | 25255 ft | 375 kts | 172° |
| 2026-04-16 11:04 | 50.46926 | -0.13472 | 25715 ft | 377 kts | 172° |
| 2026-04-16 11:04 | 50.44360 | -0.12530 | 26171 ft | 380 kts | 172° |
| 2026-04-16 11:04 | 50.41809 | -0.11595 | 26632 ft | 382 kts | 172° |
| 2026-04-16 11:04 | 50.39211 | -0.10640 | 27074 ft | 385 kts | 172° |
| 2026-04-16 11:05 | 50.36594 | -0.09681 | 27505 ft | 388 kts | 172° |
| 2026-04-16 11:05 | 50.33961 | -0.08715 | 27942 ft | 390 kts | 172° |
| 2026-04-16 11:05 | 50.31308 | -0.07741 | 28392 ft | 393 kts | 172° |
| 2026-04-16 11:05 | 50.28644 | -0.06772 | 28822 ft | 395 kts | 172° |
| 2026-04-16 11:06 | 50.25956 | -0.05797 | 29232 ft | 398 kts | 172° |
| 2026-04-16 11:06 | 50.23247 | -0.04818 | 29641 ft | 401 kts | 172° |
| 2026-04-16 11:06 | 50.20521 | -0.03830 | 30046 ft | 403 kts | 172° |
| 2026-04-16 11:06 | 50.17779 | -0.02833 | 30409 ft | 406 kts | 172° |
| 2026-04-16 11:07 | 50.15021 | -0.01831 | 30727 ft | 408 kts | 172° |
| 2026-04-16 11:07 | 50.12244 | -0.00819 | 31055 ft | 411 kts | 172° |
| 2026-04-16 11:07 | 50.09458 | 0.00189 | 31373 ft | 413 kts | 172° |
| 2026-04-16 11:07 | 50.06657 | 0.01239 | 31684 ft | 415 kts | 172° |
| 2026-04-16 11:08 | 50.03850 | 0.02340 | 32069 ft | 416 kts | 171° |
| 2026-04-16 11:08 | 50.01051 | 0.03471 | 32528 ft | 414 kts | 171° |
| 2026-04-16 11:08 | 49.98265 | 0.04605 | 32992 ft | 413 kts | 171° |
| 2026-04-16 11:08 | 49.95489 | 0.05728 | 33441 ft | 412 kts | 171° |
| 2026-04-16 11:09 | 49.92716 | 0.06835 | 33876 ft | 411 kts | 172° |
| 2026-04-16 11:09 | 49.89948 | 0.07919 | 34304 ft | 410 kts | 172° |
| 2026-04-16 11:09 | 49.87183 | 0.08993 | 34673 ft | 409 kts | 172° |
| 2026-04-16 11:09 | 49.84419 | 0.10068 | 35019 ft | 409 kts | 172° |
| 2026-04-16 11:10 | 49.81656 | 0.11141 | 35352 ft | 410 kts | 172° |
| 2026-04-16 11:10 | 49.78891 | 0.12217 | 35681 ft | 410 kts | 172° |
| 2026-04-16 11:10 | 49.76127 | 0.13295 | 36007 ft | 410 kts | 172° |
| 2026-04-16 11:10 | 49.73369 | 0.14372 | 36324 ft | 410 kts | 172° |
| 2026-04-16 11:11 | 49.70600 | 0.15453 | 36620 ft | 410 kts | 172° |
| 2026-04-16 11:11 | 49.67832 | 0.16530 | 36917 ft | 410 kts | 172° |
| 2026-04-16 11:11 | 49.65064 | 0.17619 | 37178 ft | 411 kts | 171° |
| 2026-04-16 11:12 | 49.59546 | 0.19849 | 37243 ft | 409 kts | 171° |
| 2026-04-16 11:12 | 49.54082 | 0.22072 | 37246 ft | 409 kts | 171° |
| 2026-04-16 11:13 | 49.48577 | 0.24281 | 37242 ft | 409 kts | 171° |
| 2026-04-16 11:13 | 49.43060 | 0.26491 | 37246 ft | 410 kts | 171° |
| 2026-04-16 11:14 | 49.37526 | 0.28702 | 37240 ft | 411 kts | 171° |
| 2026-04-16 11:14 | 49.31989 | 0.30900 | 37228 ft | 411 kts | 171° |
| 2026-04-16 11:15 | 49.26450 | 0.33163 | 37224 ft | 413 kts | 171° |
| 2026-04-16 11:15 | 49.20913 | 0.35531 | 37223 ft | 413 kts | 170° |
| 2026-04-16 11:16 | 49.15368 | 0.37886 | 37223 ft | 414 kts | 171° |
| 2026-04-16 11:16 | 49.09806 | 0.40224 | 37219 ft | 415 kts | 171° |
| 2026-04-16 11:17 | 49.04236 | 0.42552 | 37220 ft | 416 kts | 171° |
| 2026-04-16 11:17 | 48.98654 | 0.44884 | 37226 ft | 416 kts | 171° |
| 2026-04-16 11:18 | 48.94004 | 0.46821 | 37225 ft | 417 kts | 171° |
| 2026-04-16 11:18 | 48.88405 | 0.49142 | 37231 ft | 418 kts | 171° |
| 2026-04-16 11:19 | 48.82792 | 0.51471 | 37236 ft | 419 kts | 171° |
| 2026-04-16 11:19 | 48.77164 | 0.53800 | 37236 ft | 419 kts | 171° |
| 2026-04-16 11:20 | 48.71517 | 0.56037 | 37240 ft | 419 kts | 171° |
| 2026-04-16 11:20 | 48.65859 | 0.58215 | 37241 ft | 420 kts | 171° |
| 2026-04-16 11:21 | 48.60187 | 0.60413 | 37245 ft | 421 kts | 171° |
| 2026-04-16 11:21 | 48.54511 | 0.62630 | 37249 ft | 422 kts | 171° |
| 2026-04-16 11:22 | 48.48824 | 0.64867 | 37252 ft | 423 kts | 171° |
| 2026-04-16 11:22 | 48.43139 | 0.67197 | 37251 ft | 424 kts | 170° |
| 2026-04-16 11:23 | 48.37446 | 0.69534 | 37253 ft | 424 kts | 171° |
| 2026-04-16 11:23 | 48.31737 | 0.71851 | 37257 ft | 425 kts | 171° |
| 2026-04-16 11:24 | 48.26025 | 0.74155 | 37252 ft | 426 kts | 171° |
| 2026-04-16 11:24 | 48.20296 | 0.76448 | 37256 ft | 426 kts | 171° |
| 2026-04-16 11:25 | 48.14553 | 0.78692 | 37252 ft | 427 kts | 171° |
| 2026-04-16 11:25 | 48.08801 | 0.80925 | 37256 ft | 428 kts | 171° |
| 2026-04-16 11:26 | 48.03032 | 0.83184 | 37256 ft | 429 kts | 171° |
| 2026-04-16 11:26 | 47.97255 | 0.85451 | 37255 ft | 429 kts | 171° |
| 2026-04-16 11:27 | 47.91474 | 0.87711 | 37254 ft | 430 kts | 171° |
| 2026-04-16 11:27 | 47.85679 | 0.89967 | 37253 ft | 431 kts | 171° |
| 2026-04-16 11:28 | 47.79877 | 0.92218 | 37251 ft | 431 kts | 171° |
| 2026-04-16 11:28 | 47.74057 | 0.94467 | 37255 ft | 432 kts | 171° |
| 2026-04-16 11:29 | 47.68232 | 0.96717 | 37258 ft | 433 kts | 171° |
| 2026-04-16 11:29 | 47.62434 | 0.98957 | 37262 ft | 434 kts | 171° |
| 2026-04-16 11:30 | 47.56580 | 1.01216 | 37266 ft | 435 kts | 171° |
| 2026-04-16 11:30 | 47.50724 | 1.03458 | 37271 ft | 435 kts | 171° |
| 2026-04-16 11:31 | 47.44855 | 1.05684 | 37270 ft | 435 kts | 173° |
| 2026-04-16 11:31 | 47.38915 | 1.06356 | 37270 ft | 425 kts | 186° |
| 2026-04-16 11:32 | 47.32984 | 1.06207 | 37270 ft | 426 kts | 186° |
| 2026-04-16 11:32 | 47.27047 | 1.06076 | 37269 ft | 427 kts | 186° |
| 2026-04-16 11:33 | 47.21101 | 1.05935 | 37270 ft | 428 kts | 186° |
| 2026-04-16 11:33 | 47.15147 | 1.05801 | 37263 ft | 428 kts | 186° |
| 2026-04-16 11:34 | 47.09188 | 1.05664 | 37271 ft | 429 kts | 186° |
| 2026-04-16 11:34 | 47.03218 | 1.05517 | 37270 ft | 429 kts | 186° |
| 2026-04-16 11:35 | 46.97248 | 1.05324 | 37269 ft | 429 kts | 186° |
| 2026-04-16 11:35 | 46.91261 | 1.05045 | 37268 ft | 432 kts | 186° |
| 2026-04-16 11:36 | 46.85237 | 1.04761 | 37258 ft | 434 kts | 186° |
| 2026-04-16 11:36 | 46.79216 | 1.04494 | 37256 ft | 436 kts | 186° |
| 2026-04-16 11:37 | 46.73137 | 1.04238 | 37257 ft | 437 kts | 186° |
| 2026-04-16 11:37 | 46.67050 | 1.03991 | 37259 ft | 438 kts | 186° |
| 2026-04-16 11:38 | 46.60952 | 1.03739 | 37262 ft | 438 kts | 186° |
| 2026-04-16 11:38 | 46.54854 | 1.03483 | 37263 ft | 439 kts | 186° |
| 2026-04-16 11:39 | 46.48748 | 1.03253 | 37266 ft | 439 kts | 185° |
| 2026-04-16 11:39 | 46.42631 | 1.03179 | 37268 ft | 440 kts | 184° |
| 2026-04-16 11:40 | 46.36506 | 1.03162 | 37266 ft | 440 kts | 184° |
| 2026-04-16 11:40 | 46.30391 | 1.03114 | 37271 ft | 440 kts | 185° |
| 2026-04-16 11:41 | 46.24270 | 1.03037 | 37271 ft | 440 kts | 185° |
| 2026-04-16 11:41 | 46.18151 | 1.02963 | 37269 ft | 440 kts | 185° |
| 2026-04-16 11:42 | 46.12029 | 1.02895 | 37266 ft | 440 kts | 184° |
| 2026-04-16 11:42 | 46.05911 | 1.02828 | 37265 ft | 440 kts | 184° |
| 2026-04-16 11:43 | 45.99786 | 1.02761 | 37264 ft | 440 kts | 184° |
| 2026-04-16 11:43 | 45.93660 | 1.02698 | 37261 ft | 440 kts | 184° |
| 2026-04-16 11:44 | 45.87534 | 1.02623 | 37263 ft | 440 kts | 184° |
| 2026-04-16 11:44 | 45.81409 | 1.02700 | 37262 ft | 443 kts | 178° |
| 2026-04-16 11:45 | 45.75304 | 1.04179 | 37261 ft | 445 kts | 173° |
| 2026-04-16 11:45 | 45.69203 | 1.05752 | 37261 ft | 446 kts | 173° |
| 2026-04-16 11:46 | 45.63096 | 1.07326 | 37262 ft | 446 kts | 173° |
| 2026-04-16 11:46 | 45.56993 | 1.08890 | 37260 ft | 446 kts | 173° |
| 2026-04-16 11:47 | 45.50879 | 1.10448 | 37261 ft | 446 kts | 173° |
| 2026-04-16 11:47 | 45.44809 | 1.11995 | 37255 ft | 446 kts | 173° |
| 2026-04-16 11:48 | 45.38693 | 1.13550 | 37253 ft | 446 kts | 173° |
| 2026-04-16 11:48 | 45.32577 | 1.15100 | 37255 ft | 447 kts | 173° |
| 2026-04-16 11:49 | 45.26459 | 1.16653 | 37256 ft | 447 kts | 173° |
| 2026-04-16 11:49 | 45.20337 | 1.18207 | 37254 ft | 447 kts | 173° |
| 2026-04-16 11:50 | 45.14192 | 1.18777 | 37252 ft | 440 kts | 189° |
| 2026-04-16 11:50 | 45.08186 | 1.17333 | 37249 ft | 437 kts | 194° |
| 2026-04-16 11:51 | 45.02191 | 1.15773 | 37244 ft | 438 kts | 194° |
| 2026-04-16 11:51 | 44.96192 | 1.14244 | 37245 ft | 438 kts | 193° |
| 2026-04-16 11:52 | 44.90185 | 1.12725 | 37242 ft | 438 kts | 193° |
| 2026-04-16 11:52 | 44.84177 | 1.11186 | 37241 ft | 439 kts | 194° |
| 2026-04-16 11:53 | 44.78165 | 1.09657 | 37244 ft | 439 kts | 193° |
| 2026-04-16 11:53 | 44.72190 | 1.08146 | 37244 ft | 439 kts | 193° |
| 2026-04-16 11:54 | 44.66177 | 1.06614 | 37241 ft | 439 kts | 193° |
| 2026-04-16 11:54 | 44.60156 | 1.05090 | 37242 ft | 439 kts | 193° |
| 2026-04-16 11:55 | 44.54138 | 1.03572 | 37242 ft | 439 kts | 193° |
| 2026-04-16 11:55 | 44.48119 | 1.02057 | 37243 ft | 440 kts | 193° |
| 2026-04-16 11:56 | 44.42091 | 1.00551 | 37241 ft | 440 kts | 193° |
| 2026-04-16 11:56 | 44.36066 | 0.99043 | 37239 ft | 440 kts | 193° |
| 2026-04-16 11:57 | 44.30036 | 0.97533 | 37238 ft | 440 kts | 193° |
| 2026-04-16 11:57 | 44.24011 | 0.96018 | 37241 ft | 440 kts | 193° |
| 2026-04-16 11:58 | 44.17981 | 0.94510 | 37239 ft | 440 kts | 193° |
| 2026-04-16 11:58 | 44.11948 | 0.93012 | 37236 ft | 440 kts | 193° |
| 2026-04-16 11:59 | 44.05913 | 0.91513 | 37240 ft | 440 kts | 193° |
| 2026-04-16 11:59 | 43.99881 | 0.90023 | 37240 ft | 440 kts | 193° |
| 2026-04-16 12:00 | 43.93838 | 0.88540 | 37242 ft | 441 kts | 193° |
| 2026-04-16 12:00 | 43.87799 | 0.87052 | 37246 ft | 441 kts | 193° |
| 2026-04-16 12:01 | 43.81776 | 0.85468 | 37243 ft | 441 kts | 194° |
| 2026-04-16 12:01 | 43.75800 | 0.83821 | 37243 ft | 441 kts | 194° |
| 2026-04-16 12:02 | 43.66770 | 0.81386 | 37243 ft | 441 kts | 193° |
| 2026-04-16 12:02 | 43.61719 | 0.80051 | 37252 ft | 441 kts | 193° |
| 2026-04-16 12:03 | 43.55685 | 0.78444 | 37248 ft | 441 kts | 193° |
| 2026-04-16 12:03 | 43.49657 | 0.76839 | 37246 ft | 441 kts | 193° |
| 2026-04-16 12:04 | 43.43626 | 0.75239 | 37245 ft | 441 kts | 193° |
| 2026-04-16 12:04 | 43.37630 | 0.73657 | 37238 ft | 441 kts | 193° |
| 2026-04-16 12:05 | 43.31590 | 0.72075 | 37239 ft | 442 kts | 193° |
| 2026-04-16 12:05 | 43.25554 | 0.70484 | 37237 ft | 442 kts | 193° |
| 2026-04-16 12:06 | 43.19517 | 0.68909 | 37232 ft | 442 kts | 193° |
| 2026-04-16 12:06 | 43.13475 | 0.67332 | 37235 ft | 442 kts | 193° |
| 2026-04-16 12:07 | 43.07428 | 0.65745 | 37236 ft | 442 kts | 193° |
| 2026-04-16 12:07 | 43.01386 | 0.64169 | 37233 ft | 442 kts | 193° |
| 2026-04-16 12:08 | 42.95337 | 0.62596 | 37229 ft | 442 kts | 193° |
| 2026-04-16 12:08 | 42.89286 | 0.61019 | 37231 ft | 442 kts | 193° |
| 2026-04-16 12:09 | 42.83239 | 0.59452 | 37223 ft | 442 kts | 193° |
| 2026-04-16 12:09 | 42.77198 | 0.57891 | 37215 ft | 442 kts | 193° |
| 2026-04-16 12:10 | 42.71149 | 0.56332 | 37219 ft | 442 kts | 193° |
| 2026-04-16 12:10 | 42.65101 | 0.54763 | 37216 ft | 442 kts | 193° |
| 2026-04-16 12:11 | 42.59047 | 0.53205 | 37215 ft | 443 kts | 193° |
| 2026-04-16 12:11 | 42.52997 | 0.51665 | 37211 ft | 442 kts | 193° |
| 2026-04-16 12:12 | 42.46945 | 0.50111 | 37206 ft | 442 kts | 193° |
| 2026-04-16 12:12 | 42.40896 | 0.48561 | 37202 ft | 442 kts | 193° |
| 2026-04-16 12:13 | 42.34850 | 0.47021 | 37199 ft | 442 kts | 193° |
| 2026-04-16 12:13 | 42.28803 | 0.45484 | 37196 ft | 442 kts | 193° |
| 2026-04-16 12:14 | 42.22766 | 0.43947 | 37195 ft | 442 kts | 193° |
| 2026-04-16 12:14 | 42.16746 | 0.42415 | 37192 ft | 442 kts | 193° |
| 2026-04-16 12:15 | 42.10655 | 0.40874 | 37191 ft | 442 kts | 193° |
| 2026-04-16 12:15 | 42.04643 | 0.39350 | 37191 ft | 442 kts | 193° |
| 2026-04-16 12:16 | 41.98597 | 0.37823 | 37196 ft | 442 kts | 193° |
| 2026-04-16 12:16 | 41.92544 | 0.36295 | 37196 ft | 443 kts | 193° |
| 2026-04-16 12:17 | 41.86485 | 0.34775 | 37199 ft | 443 kts | 193° |
| 2026-04-16 12:17 | 41.80434 | 0.33260 | 37200 ft | 443 kts | 193° |
| 2026-04-16 12:18 | 41.74374 | 0.31743 | 37200 ft | 443 kts | 193° |
| 2026-04-16 12:18 | 41.68314 | 0.30230 | 37198 ft | 443 kts | 193° |
| 2026-04-16 12:19 | 41.62256 | 0.28716 | 37196 ft | 443 kts | 193° |
| 2026-04-16 12:19 | 41.56189 | 0.27208 | 37192 ft | 443 kts | 192° |
| 2026-04-16 12:20 | 41.50118 | 0.25704 | 37191 ft | 443 kts | 192° |
| 2026-04-16 12:20 | 41.44049 | 0.24200 | 37186 ft | 444 kts | 193° |
| 2026-04-16 12:21 | 41.37976 | 0.22698 | 37190 ft | 444 kts | 192° |
| 2026-04-16 12:21 | 41.31899 | 0.21195 | 37188 ft | 444 kts | 193° |
| 2026-04-16 12:22 | 41.25818 | 0.19690 | 37187 ft | 444 kts | 192° |
| 2026-04-16 12:22 | 41.19733 | 0.18198 | 37184 ft | 445 kts | 192° |
| 2026-04-16 12:23 | 41.13654 | 0.16697 | 37180 ft | 444 kts | 194° |
| 2026-04-16 12:23 | 41.07731 | 0.14418 | 37186 ft | 443 kts | 199° |
| 2026-04-16 12:24 | 41.01827 | 0.12032 | 37185 ft | 443 kts | 199° |
| 2026-04-16 12:24 | 40.95922 | 0.09652 | 37187 ft | 444 kts | 199° |
| 2026-04-16 12:25 | 40.90016 | 0.07283 | 37185 ft | 444 kts | 199° |
| 2026-04-16 12:25 | 40.84102 | 0.04912 | 37181 ft | 444 kts | 199° |
| 2026-04-16 12:26 | 40.78190 | 0.02542 | 37182 ft | 444 kts | 199° |
| 2026-04-16 12:26 | 40.72276 | 0.00176 | 37190 ft | 444 kts | 199° |
| 2026-04-16 12:27 | 40.66391 | -0.02172 | 37183 ft | 445 kts | 199° |
| 2026-04-16 12:27 | 40.60468 | -0.04525 | 37185 ft | 445 kts | 199° |
| 2026-04-16 12:28 | 40.54541 | -0.06889 | 37197 ft | 445 kts | 199° |
| 2026-04-16 12:28 | 40.48617 | -0.09241 | 37207 ft | 445 kts | 199° |
| 2026-04-16 12:29 | 40.42692 | -0.11587 | 37224 ft | 445 kts | 199° |
| 2026-04-16 12:29 | 40.36760 | -0.13935 | 37225 ft | 445 kts | 199° |
| 2026-04-16 12:30 | 40.30833 | -0.16274 | 37225 ft | 445 kts | 199° |
| 2026-04-16 12:30 | 40.24909 | -0.18606 | 37225 ft | 445 kts | 199° |
| 2026-04-16 12:31 | 40.18980 | -0.20929 | 37218 ft | 445 kts | 199° |
| 2026-04-16 12:31 | 40.13055 | -0.23248 | 37212 ft | 444 kts | 200° |
| 2026-04-16 12:32 | 40.07128 | -0.25569 | 37212 ft | 444 kts | 200° |
| 2026-04-16 12:32 | 40.01206 | -0.27891 | 37203 ft | 444 kts | 200° |
| 2026-04-16 12:33 | 39.95276 | -0.30208 | 37203 ft | 444 kts | 200° |
| 2026-04-16 12:33 | 39.89351 | -0.32516 | 37203 ft | 444 kts | 200° |
| 2026-04-16 12:34 | 39.83465 | -0.34810 | 37202 ft | 444 kts | 200° |
| 2026-04-16 12:34 | 39.77502 | -0.37129 | 37200 ft | 444 kts | 200° |
| 2026-04-16 12:35 | 39.71607 | -0.39411 | 37199 ft | 445 kts | 200° |
| 2026-04-16 12:35 | 39.65672 | -0.41701 | 37201 ft | 445 kts | 200° |
| 2026-04-16 12:36 | 39.59735 | -0.44001 | 37200 ft | 445 kts | 200° |
| 2026-04-16 12:36 | 39.53790 | -0.46295 | 37200 ft | 445 kts | 200° |
| 2026-04-16 12:37 | 39.47927 | -0.48811 | 37198 ft | 441 kts | 209° |
| 2026-04-16 12:37 | 39.42533 | -0.52529 | 37197 ft | 439 kts | 213° |
| 2026-04-16 12:38 | 39.37145 | -0.56278 | 37199 ft | 440 kts | 212° |
| 2026-04-16 12:38 | 39.31746 | -0.60015 | 37196 ft | 440 kts | 212° |
| 2026-04-16 12:39 | 39.26353 | -0.63752 | 37193 ft | 440 kts | 213° |
| 2026-04-16 12:39 | 39.20959 | -0.67488 | 37194 ft | 440 kts | 213° |
| 2026-04-16 12:40 | 39.15560 | -0.71223 | 37192 ft | 440 kts | 213° |
| 2026-04-16 12:40 | 39.10162 | -0.74942 | 37193 ft | 440 kts | 213° |
| 2026-04-16 12:41 | 39.04756 | -0.78663 | 37197 ft | 440 kts | 213° |
| 2026-04-16 12:41 | 38.99358 | -0.82395 | 37198 ft | 440 kts | 213° |
| 2026-04-16 12:42 | 38.93961 | -0.86118 | 37199 ft | 440 kts | 213° |
| 2026-04-16 12:42 | 38.88553 | -0.89818 | 37201 ft | 440 kts | 213° |
| 2026-04-16 12:43 | 38.83144 | -0.93507 | 37204 ft | 440 kts | 213° |
| 2026-04-16 12:43 | 38.78652 | -0.96581 | 37206 ft | 440 kts | 213° |
| 2026-04-16 12:44 | 38.73239 | -1.00271 | 37211 ft | 440 kts | 213° |
| 2026-04-16 12:44 | 38.67812 | -1.03956 | 36754 ft | 443 kts | 213° |
| 2026-04-16 12:45 | 38.65092 | -1.05799 | 36343 ft | 442 kts | 213° |
| 2026-04-16 12:45 | 38.62375 | -1.07642 | 35944 ft | 443 kts | 213° |
| 2026-04-16 12:45 | 38.58771 | -1.10093 | 35423 ft | 444 kts | 213° |
| 2026-04-16 12:45 | 38.56924 | -1.11349 | 35160 ft | 444 kts | 213° |
| 2026-04-16 12:46 | 38.54202 | -1.13199 | 34772 ft | 443 kts | 213° |
| 2026-04-16 12:46 | 38.51487 | -1.15040 | 34392 ft | 440 kts | 212° |
| 2026-04-16 12:46 | 38.48789 | -1.16866 | 33988 ft | 438 kts | 212° |
| 2026-04-16 12:46 | 38.46099 | -1.18684 | 33549 ft | 435 kts | 212° |
| 2026-04-16 12:47 | 38.43435 | -1.20484 | 33123 ft | 432 kts | 212° |
| 2026-04-16 12:47 | 38.40781 | -1.22273 | 32699 ft | 430 kts | 212° |
| 2026-04-16 12:47 | 38.38140 | -1.24052 | 32283 ft | 427 kts | 211° |
| 2026-04-16 12:47 | 38.35554 | -1.25791 | 31883 ft | 424 kts | 211° |
| 2026-04-16 12:48 | 38.32954 | -1.27540 | 31481 ft | 421 kts | 211° |
| 2026-04-16 12:48 | 38.30372 | -1.29276 | 31086 ft | 419 kts | 211° |
| 2026-04-16 12:48 | 38.27806 | -1.31002 | 30697 ft | 416 kts | 211° |
| 2026-04-16 12:48 | 38.25253 | -1.32718 | 30306 ft | 413 kts | 211° |
| 2026-04-16 12:49 | 38.22713 | -1.34424 | 29850 ft | 411 kts | 210° |
| 2026-04-16 12:49 | 38.20195 | -1.36110 | 29408 ft | 408 kts | 210° |
| 2026-04-16 12:49 | 38.17686 | -1.37790 | 28967 ft | 406 kts | 210° |
| 2026-04-16 12:49 | 38.15190 | -1.39462 | 28530 ft | 404 kts | 210° |
| 2026-04-16 12:50 | 38.12712 | -1.41120 | 28101 ft | 401 kts | 210° |
| 2026-04-16 12:50 | 38.10248 | -1.42764 | 27686 ft | 399 kts | 210° |
| 2026-04-16 12:50 | 38.07791 | -1.44403 | 27268 ft | 397 kts | 210° |
| 2026-04-16 12:50 | 38.05350 | -1.46029 | 26864 ft | 395 kts | 210° |
| 2026-04-16 12:51 | 38.02920 | -1.47650 | 26461 ft | 393 kts | 210° |
| 2026-04-16 12:51 | 38.00509 | -1.49259 | 26069 ft | 391 kts | 210° |
| 2026-04-16 12:51 | 37.98102 | -1.50864 | 25678 ft | 389 kts | 209° |
| 2026-04-16 12:51 | 37.95714 | -1.52455 | 25289 ft | 387 kts | 209° |
| 2026-04-16 12:52 | 37.93330 | -1.54038 | 24889 ft | 386 kts | 209° |
| 2026-04-16 12:52 | 37.90954 | -1.55614 | 24494 ft | 384 kts | 209° |
| 2026-04-16 12:52 | 37.88592 | -1.57174 | 24109 ft | 382 kts | 208° |
| 2026-04-16 12:52 | 37.86235 | -1.58713 | 23700 ft | 380 kts | 208° |
| 2026-04-16 12:53 | 37.83885 | -1.60233 | 23236 ft | 378 kts | 208° |
| 2026-04-16 12:53 | 37.81548 | -1.61744 | 22786 ft | 376 kts | 208° |
| 2026-04-16 12:53 | 37.79228 | -1.63246 | 22342 ft | 374 kts | 208° |
| 2026-04-16 12:53 | 37.76923 | -1.64744 | 21896 ft | 371 kts | 208° |
| 2026-04-16 12:54 | 37.74631 | -1.66232 | 21466 ft | 369 kts | 208° |
| 2026-04-16 12:54 | 37.72347 | -1.67714 | 21049 ft | 368 kts | 208° |
| 2026-04-16 12:54 | 37.70106 | -1.69169 | 20627 ft | 366 kts | 208° |
| 2026-04-16 12:54 | 37.67843 | -1.70638 | 20208 ft | 364 kts | 208° |
| 2026-04-16 12:55 | 37.65590 | -1.72097 | 19800 ft | 363 kts | 208° |
| 2026-04-16 12:55 | 37.63348 | -1.73548 | 19400 ft | 361 kts | 208° |
| 2026-04-16 12:55 | 37.61111 | -1.74993 | 18997 ft | 360 kts | 208° |
| 2026-04-16 12:55 | 37.58881 | -1.76433 | 18600 ft | 359 kts | 208° |
| 2026-04-16 12:56 | 37.56660 | -1.77870 | 18152 ft | 358 kts | 208° |
| 2026-04-16 12:56 | 37.54446 | -1.79299 | 17718 ft | 357 kts | 208° |
| 2026-04-16 12:56 | 37.52240 | -1.80721 | 17279 ft | 356 kts | 208° |
| 2026-04-16 12:56 | 37.50036 | -1.82144 | 16840 ft | 355 kts | 208° |
| 2026-04-16 12:57 | 37.47837 | -1.83562 | 16411 ft | 354 kts | 208° |
| 2026-04-16 12:57 | 37.45645 | -1.84970 | 15990 ft | 354 kts | 208° |
| 2026-04-16 12:57 | 37.43454 | -1.86374 | 15575 ft | 353 kts | 208° |
| 2026-04-16 12:57 | 37.41271 | -1.87772 | 15161 ft | 352 kts | 208° |
| 2026-04-16 12:58 | 37.39097 | -1.89162 | 14746 ft | 351 kts | 208° |
| 2026-04-16 12:58 | 37.36922 | -1.90554 | 14356 ft | 350 kts | 208° |
| 2026-04-16 12:58 | 37.34754 | -1.91946 | 13952 ft | 349 kts | 208° |
| 2026-04-16 12:58 | 37.32599 | -1.93331 | 13502 ft | 348 kts | 208° |
| 2026-04-16 12:59 | 37.30447 | -1.94713 | 13063 ft | 346 kts | 208° |
| 2026-04-16 12:59 | 37.28310 | -1.96080 | 12629 ft | 344 kts | 208° |
| 2026-04-16 12:59 | 37.26185 | -1.97438 | 12209 ft | 342 kts | 208° |
| 2026-04-16 13:00 | 37.21981 | -2.00157 | 11362 ft | 338 kts | 208° |
| 2026-04-16 13:00 | 37.19911 | -2.01543 | 10946 ft | 336 kts | 209° |
| 2026-04-16 13:00 | 37.17864 | -2.02928 | 10544 ft | 333 kts | 210° |
| 2026-04-16 13:00 | 37.15831 | -2.04305 | 10146 ft | 331 kts | 209° |
| 2026-04-16 13:01 | 37.13809 | -2.05667 | 9694 ft | 328 kts | 209° |
| 2026-04-16 13:01 | 37.11815 | -2.06999 | 9235 ft | 320 kts | 209° |
| 2026-04-16 13:01 | 37.09881 | -2.08284 | 8802 ft | 310 kts | 209° |
| 2026-04-16 13:01 | 37.08004 | -2.09533 | 8363 ft | 301 kts | 208° |
| 2026-04-16 13:02 | 37.06182 | -2.10750 | 7941 ft | 293 kts | 208° |
| 2026-04-16 13:02 | 37.04404 | -2.11933 | 7520 ft | 286 kts | 208° |
| 2026-04-16 13:02 | 37.02624 | -2.12970 | 7089 ft | 279 kts | 194° |
| 2026-04-16 13:02 | 37.00751 | -2.12882 | 6701 ft | 269 kts | 158° |
| 2026-04-16 13:03 | 36.99288 | -2.11537 | 6274 ft | 260 kts | 130° |
| 2026-04-16 13:03 | 36.98217 | -2.09777 | 5858 ft | 254 kts | 125° |
| 2026-04-16 13:03 | 36.97127 | -2.08069 | 5434 ft | 249 kts | 131° |
| 2026-04-16 13:03 | 36.95902 | -2.06561 | 5020 ft | 245 kts | 139° |
| 2026-04-16 13:04 | 36.94523 | -2.05386 | 4751 ft | 234 kts | 160° |
| 2026-04-16 13:04 | 36.92985 | -2.05389 | 4617 ft | 219 kts | 202° |
| 2026-04-16 13:04 | 36.91930 | -2.06622 | 4548 ft | 204 kts | 241° |
| 2026-04-16 13:04 | 36.91420 | -2.08231 | 4395 ft | 197 kts | 251° |
| 2026-04-16 13:05 | 36.91012 | -2.09858 | 4169 ft | 196 kts | 252° |
| 2026-04-16 13:05 | 36.90617 | -2.11484 | 3924 ft | 196 kts | 253° |
| 2026-04-16 13:05 | 36.90219 | -2.13121 | 3661 ft | 197 kts | 252° |
| 2026-04-16 13:05 | 36.89822 | -2.14754 | 3404 ft | 196 kts | 252° |
| 2026-04-16 13:06 | 36.89426 | -2.16387 | 3134 ft | 196 kts | 252° |
| 2026-04-16 13:06 | 36.89029 | -2.18018 | 2889 ft | 194 kts | 251° |
| 2026-04-16 13:06 | 36.88636 | -2.19635 | 2622 ft | 194 kts | 251° |
| 2026-04-16 13:06 | 36.88249 | -2.21223 | 2383 ft | 188 kts | 252° |
| 2026-04-16 13:07 | 36.87889 | -2.22703 | 2136 ft | 170 kts | 252° |
| 2026-04-16 13:07 | 36.87559 | -2.24059 | 1926 ft | 157 kts | 252° |
| 2026-04-16 13:07 | 36.87251 | -2.25320 | 1690 ft | 147 kts | 252° |
| 2026-04-16 13:07 | 36.86962 | -2.26502 | 1516 ft | 141 kts | 251° |
| 2026-04-16 13:08 | 36.86681 | -2.27655 | 1334 ft | 136 kts | 251° |
| 2026-04-16 13:08 | 36.86409 | -2.28770 | 1152 ft | 132 kts | 252° |
| 2026-04-16 13:08 | 36.86141 | -2.29851 | 948 ft | 127 kts | 251° |
| 2026-04-16 13:08 | 36.85886 | -2.30903 | 776 ft | 125 kts | 253° |
| 2026-04-16 13:09 | 36.85634 | -2.31944 | 607 ft | 125 kts | 252° |
| 2026-04-16 13:09 | 36.85382 | -2.32975 | 490 ft | 124 kts | 249° |
| 2026-04-16 13:09 | 36.85130 | -2.34012 | 319 ft | 126 kts | 251° |
| 2026-04-16 13:09 | 36.84878 | -2.35047 | 154 ft | 124 kts | 251° |
| 2026-04-16 13:10 | 36.84632 | -2.36038 | 63 ft | 107 kts | 253° |
| 2026-04-16 13:10 | 36.84457 | -2.36755 | 61 ft | 62 kts | 253° |
| 2026-04-16 13:10 | 36.84364 | -2.37129 | 56 ft | 37 kts | 253° |
| 2026-04-16 13:10 | 36.84300 | -2.37400 | 63 ft | 30 kts | 253° |
| 2026-04-16 13:11 | 36.84242 | -2.37641 | 64 ft | 28 kts | 252° |
| 2026-04-16 13:11 | 36.84196 | -2.37870 | 63 ft | 26 kts | 266° |
| 2026-04-16 13:11 | 36.84210 | -2.38077 | 60 ft | 16 kts | 280° |
| 2026-04-16 13:11 | 36.84226 | -2.38178 | 61 ft | 11 kts | 286° |
| 2026-04-16 13:12 | 36.84282 | -2.38177 | 59 ft | 11 kts | 57° |
| 2026-04-16 13:12 | 36.84306 | -2.38082 | 66 ft | 12 kts | 73° |
| 2026-04-16 13:12 | 36.84334 | -2.37970 | 66 ft | 15 kts | 73° |
| 2026-04-16 13:12 | 36.84366 | -2.37839 | 59 ft | 16 kts | 73° |
| 2026-04-16 13:13 | 36.84397 | -2.37709 | 60 ft | 17 kts | 73° |
| 2026-04-16 13:13 | 36.84433 | -2.37564 | 64 ft | 18 kts | 72° |
| 2026-04-16 13:13 | 36.84466 | -2.37429 | 66 ft | 12 kts | 73° |
| 2026-04-16 13:13 | 36.84506 | -2.37376 | 66 ft | 9 kts | 3° |
| 2026-04-16 13:14 | 36.84560 | -2.37352 | 68 ft | 9 kts | 58° |
| 2026-04-16 13:14 | 36.84607 | -2.37351 | 69 ft | 7 kts | 340° |
| 2026-04-16 13:14 | 36.84641 | -2.37365 | 63 ft | 2 kts | 347° |
| 2026-04-16 13:14 | 36.84643 | -2.37350 | 70 ft | 3 kts | 94° |
| 2026-04-16 13:15 | 36.84633 | -2.37335 | 64 ft | 2 kts | 124° |
| 2026-04-16 13:15 | 36.84630 | -2.37327 | 66 ft | 0 kts | 118° |
| 2026-04-16 13:15 | 36.84630 | -2.37326 | 67 ft | 0 kts | 117° |